Time;durP1;ratioP1;P1;durP2;ratioP2;P2;SDS_P1;SDS_P2;PMS_P1;PMS_P2;Temp;Humidity;BMP_temperature;BMP_pressure;BME280_temperature;BME280_humidity;BME280_pressure;Samples;Min_cycle;Max_cycle;Signal;HPM_P1;HPM_P2
2023/10/14 00:00:40;;;;;;;17.00;5.13;;;;;;;16.20;100.00;99160.84;5123247;27;20139;-93
2023/10/14 00:03:18;;;;;;;12.95;5.47;;;;;;;16.17;100.00;99150.22;5115379;27;20090;-94
2023/10/14 00:05:44;;;;;;;12.95;5.25;;;;;;;16.14;100.00;99145.00;5114969;28;20074;-94
2023/10/14 00:08:12;;;;;;;13.95;5.00;;;;;;;15.89;100.00;99093.38;5112745;27;20044;-94
2023/10/14 00:10:39;;;;;;;12.27;4.93;;;;;;;16.19;100.00;99159.09;5116179;27;20071;-95
2023/10/14 00:13:10;;;;;;;10.70;5.00;;;;;;;16.07;100.00;99142.66;5129732;27;20043;-95
2023/10/14 00:15:37;;;;;;;7.95;3.75;;;;;;;16.20;100.00;99142.06;5138327;27;20401;-94
2023/10/14 00:18:05;;;;;;;11.77;4.40;;;;;;;16.17;100.00;99126.09;5135833;27;20060;-95
2023/10/14 00:20:35;;;;;;;13.43;5.28;;;;;;;16.12;100.00;99112.00;5121076;28;20044;-93
2023/10/14 00:23:00;;;;;;;;;;;;;;;16.35;100.00;99155.72;5122564;28;20043;-95
2023/10/14 00:25:26;;;;;;;11.23;4.75;;;;;;;16.23;100.00;99130.31;5103422;28;19927;-95
2023/10/14 00:27:52;;;;;;;18.48;5.72;;;;;;;16.13;100.00;99116.41;5100745;28;20036;-93
2023/10/14 00:30:21;;;;;;;11.80;5.13;;;;;;;15.95;100.00;99064.47;5101124;28;20067;-94
2023/10/14 00:32:46;;;;;;;13.60;5.38;;;;;;;16.38;100.00;99120.72;5100975;28;20031;-92
2023/10/14 00:35:18;;;;;;;10.98;5.20;;;;;;;16.34;100.00;99103.88;5118221;28;20035;-94
2023/10/14 00:38:08;;;;;;;11.20;5.13;;;;;;;16.06;100.00;99050.56;5120536;28;20065;-93
2023/10/14 00:40:51;;;;;;;10.15;4.68;;;;;;;16.07;100.00;99054.13;5121015;28;20046;-94
2023/10/14 00:43:20;;;;;;;11.07;4.78;;;;;;;16.13;100.00;99069.94;5120438;28;20044;-93
2023/10/14 00:45:47;;;;;;;13.93;5.72;;;;;;;16.38;100.00;99118.03;5120548;27;20030;-94
2023/10/14 00:48:19;;;;;;;12.13;5.57;;;;;;;16.16;100.00;99078.75;5103640;28;20044;-94
2023/10/14 00:50:50;;;;;;;12.60;5.82;;;;;;;16.32;100.00;99104.88;5103887;28;20526;-93
2023/10/14 00:53:18;;;;;;;15.05;5.70;;;;;;;16.28;100.00;99096.09;5099362;28;20076;-92
2023/10/14 00:58:39;;;;;;;12.63;6.45;;;;;;;16.05;100.00;99054.22;5192272;27;20362;-96
2023/10/14 01:01:07;;;;;;;14.60;7.15;;;;;;;16.36;100.00;99106.50;5158248;27;20124;-95
2023/10/14 01:03:34;;;;;;;13.48;7.07;;;;;;;16.21;100.00;99055.25;5158601;27;20039;-93
2023/10/14 01:09:10;;;;;;;12.73;6.88;;;;;;;16.45;100.00;99076.53;5161243;27;20389;-94
2023/10/14 01:11:36;;;;;;;19.67;6.80;;;;;;;16.14;100.00;99024.28;5128902;28;20047;-95
2023/10/14 01:14:05;;;;;;;12.65;5.97;;;;;;;16.61;100.00;99096.38;5128516;27;20064;-95
2023/10/14 01:16:36;;;;;;;17.77;6.20;;;;;;;16.36;100.00;99042.06;5140174;27;20053;-95
2023/10/14 01:19:03;;;;;;;13.38;6.72;;;;;;;16.15;100.00;99017.97;5140857;27;20051;-93
2023/10/14 01:21:31;;;;;;;15.73;5.68;;;;;;;16.44;100.00;99066.75;5141088;27;20046;-95
2023/10/14 01:23:58;;;;;;;13.88;6.00;;;;;;;16.07;100.00;99022.81;5140212;27;20395;-94
2023/10/14 01:26:25;;;;;;;11.77;6.40;;;;;;;15.92;100.00;99010.13;5140995;27;20046;-95
2023/10/14 01:28:59;;;;;;;13.40;6.38;;;;;;;16.07;100.00;99038.03;5140426;27;20043;-94
2023/10/14 01:31:42;;;;;;;10.82;5.97;;;;;;;15.96;100.00;99017.94;5139097;27;20494;-94
2023/10/14 01:34:22;;;;;;;11.02;6.10;;;;;;;15.89;100.00;99008.41;5139371;27;20043;-95
2023/10/14 01:36:49;;;;;;;14.55;6.40;;;;;;;16.25;100.00;99079.28;5139008;27;20043;-96
2023/10/14 01:39:21;;;;;;;12.55;5.95;;;;;;;16.07;100.00;99048.75;5171723;22;20102;-93
2023/10/14 01:41:47;;;;;;;12.68;6.07;;;;;;;16.12;100.00;99044.06;5074554;28;20490;-94
2023/10/14 01:44:21;;;;;;;15.93;6.68;;;;;;;15.96;100.00;99003.63;5075324;28;20063;-94
2023/10/14 01:46:47;;;;;;;13.77;6.32;;;;;;;16.25;100.00;99052.44;5074301;28;20494;-95
2023/10/14 01:49:19;;;;;;;13.52;6.15;;;;;;;16.13;100.00;99048.47;5075333;28;20075;-94
2023/10/14 01:51:50;;;;;;;15.93;6.72;;;;;;;16.08;100.00;99039.78;5073434;28;20041;-94
2023/10/14 01:54:17;;;;;;;14.13;6.07;;;;;;;15.69;100.00;98998.56;5074773;28;20040;-95
2023/10/14 01:56:46;;;;;;;13.90;6.97;;;;;;;15.93;100.00;99038.66;5073324;28;20041;-95
2023/10/14 01:59:12;;;;;;;12.45;6.10;;;;;;;15.55;100.00;98977.72;5073475;28;20040;-95
2023/10/14 02:01:41;;;;;;;17.48;6.50;;;;;;;15.75;100.00;99001.00;5073496;28;20044;-94
2023/10/14 02:04:07;;;;;;;11.45;6.10;;;;;;;15.68;100.00;98988.78;5077125;28;20047;-94
2023/10/14 02:06:33;;;;;;;14.40;6.72;;;;;;;15.44;100.00;98966.63;5074382;28;20041;-94
2023/10/14 02:09:00;;;;;;;15.10;6.00;;;;;;;15.48;100.00;98964.66;5074512;28;20440;-94
2023/10/14 02:11:35;;;;;;;12.88;6.88;;;;;;;15.76;100.00;99015.25;5073334;28;20027;-94
2023/10/14 02:14:06;;;;;;;15.90;6.50;;;;;;;15.54;100.00;98984.00;5073441;28;20020;-95
2023/10/14 02:16:41;;;;;;;13.23;6.35;;;;;;;15.76;100.00;99026.00;5073030;28;20028;-93
2023/10/14 02:22:09;;;;;;;13.93;6.80;;;;;;;15.48;100.00;98994.13;5191705;27;20389;-94
2023/10/14 02:24:36;;;;;;;13.27;6.30;;;;;;;15.69;100.00;99032.53;5157059;27;20050;-95
2023/10/14 02:27:11;;;;;;;13.18;6.45;;;;;;;15.43;100.00;98983.63;5156506;27;20034;-94
2023/10/14 02:29:42;;;;;;;13.85;6.22;;;;;;;15.55;100.00;98995.63;5156458;27;20023;-95
2023/10/14 02:32:11;;;;;;;15.65;6.22;;;;;;;15.63;100.00;99019.41;5156646;27;20035;-95
2023/10/14 02:34:37;;;;;;;15.00;6.68;;;;;;;15.45;100.00;98980.88;5156195;27;20103;-94
2023/10/14 02:37:06;;;;;;;19.13;6.18;;;;;;;15.41;100.00;98982.81;5135362;27;20090;-95
2023/10/14 02:39:33;;;;;;;13.85;6.38;;;;;;;15.31;100.00;98960.00;5135501;28;20035;-95
2023/10/14 02:42:00;;;;;;;14.50;5.95;;;;;;;15.25;100.00;98961.16;5134891;28;20051;-94
2023/10/14 02:44:31;;;;;;;13.50;6.60;;;;;;;15.56;100.00;99008.94;5136453;28;20035;-95
2023/10/14 02:47:03;;;;;;;13.40;6.50;;;;;;;15.63;100.00;99014.91;5135701;28;20046;-95
2023/10/14 02:49:34;;;;;;;15.07;6.18;;;;;;;15.64;100.00;99008.63;5135081;28;20085;-94
2023/10/14 02:52:02;;;;;;;12.38;5.97;;;;;;;15.45;100.00;98979.06;5135774;27;20035;-94
2023/10/14 02:54:28;;;;;;;12.65;5.72;;;;;;;15.57;100.00;98988.34;5156684;27;20047;-95
2023/10/14 02:56:59;;;;;;;12.68;5.90;;;;;;;15.34;100.00;98946.50;5149253;27;20048;-95
2023/10/14 03:02:39;;;;;;;12.43;6.68;;;;;;;15.52;100.00;98980.53;5157962;27;20378;-95
2023/10/14 03:07:51;;;;;;;11.00;6.38;;;;;;;15.70;100.00;99016.41;5075980;27;20406;-94
2023/10/14 03:13:03;;;;;;;13.32;6.10;;;;;;;15.40;100.00;98976.59;5136294;27;20388;-94
2023/10/14 03:15:31;;;;;;;15.38;7.00;;;;;;;15.30;100.00;98956.47;5117952;28;20067;-95
2023/10/14 03:18:01;;;;;;;10.60;6.82;;;;;;;15.32;100.00;98961.78;5118876;28;20047;-95
2023/10/14 03:23:19;;;;;;;12.38;6.10;;;;;;;15.69;100.00;99017.31;5192741;27;20376;-93
2023/10/14 03:25:48;;;;;;;18.80;8.10;;;;;;;15.62;100.00;99015.84;5156933;27;20422;-95
2023/10/14 03:28:15;;;;;;;12.93;6.90;;;;;;;15.24;100.00;98953.19;5156521;27;20138;-96
2023/10/14 03:30:45;;;;;;;12.45;6.28;;;;;;;15.38;100.00;98986.50;5156036;27;20039;-95
2023/10/14 03:33:12;;;;;;;13.68;6.50;;;;;;;15.50;100.00;99016.38;5156238;27;20047;-94
2023/10/14 03:35:41;;;;;;;19.55;7.18;;;;;;;15.20;100.00;98969.41;5156728;27;20431;-95
2023/10/14 03:38:25;;;;;;;14.00;6.85;;;;;;;15.14;100.00;98956.28;5156790;27;20047;-94
2023/10/14 03:46:42;;;;;;;16.13;7.35;;;;;;;15.02;100.00;98972.84;5192084;27;20373;-94
2023/10/14 03:49:12;;;;;;;19.40;8.40;;;;;;;15.23;100.00;99007.72;5157513;27;20399;-94
2023/10/14 03:51:38;;;;;;;19.17;8.75;;;;;;;15.21;100.00;99010.47;5156651;27;20038;-94
2023/10/14 03:54:08;;;;;;;16.10;8.82;;;;;;;14.96;100.00;98982.03;5157714;27;20043;-94
2023/10/14 03:56:35;;;;;;;18.50;9.98;;;;;;;14.94;100.00;98981.22;5156942;27;20133;-92
2023/10/14 03:59:03;;;;;;;16.38;9.02;;;;;;;14.93;100.00;98987.50;5156530;27;20563;-94
2023/10/14 04:01:35;;;;;;;14.57;8.57;;;;;;;14.74;100.00;98947.22;5156127;27;20118;-95
2023/10/14 04:04:14;;;;;;;17.98;9.65;;;;;;;14.72;100.00;98948.22;5156897;27;20111;-95
2023/10/14 04:06:41;;;;;;;16.13;8.10;;;;;;;15.03;100.00;98987.09;5158034;27;20423;-94
2023/10/14 04:09:17;;;;;;;14.68;8.60;;;;;;;14.97;100.00;98982.91;5156578;27;20035;-95
2023/10/14 04:11:43;;;;;;;16.35;7.75;;;;;;;15.10;100.00;99013.59;5153024;27;20035;-95
2023/10/14 04:14:13;;;;;;;16.48;8.88;;;;;;;14.75;100.00;98950.78;5156469;27;20094;-94
2023/10/14 04:22:31;;;;;;;17.02;7.47;;;;;;;15.15;100.00;98991.97;5192193;27;20370;-96
2023/10/14 04:28:18;;;;;;;17.52;8.27;;;;;;;14.91;100.00;98969.75;5192579;27;20882;-93
2023/10/14 04:30:44;;;;;;;14.80;8.20;;;;;;;14.83;100.00;98953.13;5142756;27;20555;-92
2023/10/14 04:39:04;;;;;;;15.82;8.07;;;;;;;14.66;100.00;98932.41;5118051;27;20125;-95
2023/10/14 04:41:30;;;;;;;14.02;6.90;;;;;;;14.92;100.00;98971.47;5116336;27;20058;-93
2023/10/14 04:46:54;;;;;;;14.73;7.22;;;;;;;14.61;100.00;98958.50;5110883;27;20395;-96
2023/10/14 05:02:45;;;;;;;21.08;8.93;;;;;;;14.57;100.00;98965.78;5084135;27;1555854;-94
2023/10/14 05:05:11;;;;;;;22.48;9.93;;;;;;;14.34;100.00;98935.44;5118808;28;20093;-94
2023/10/14 05:07:36;;;;;;;21.98;9.57;;;;;;;14.38;100.00;98936.19;5118965;28;20043;-94
2023/10/14 05:10:08;;;;;;;21.30;9.93;;;;;;;14.18;100.00;98899.50;5118982;27;20039;-94
2023/10/14 05:12:40;;;;;;;26.27;9.93;;;;;;;14.56;100.00;98964.03;5099028;28;20123;-94
2023/10/14 05:15:19;;;;;;;25.80;10.18;;;;;;;14.56;100.00;98946.16;5116460;28;20046;-96
2023/10/14 05:17:49;;;;;;;22.17;10.43;;;;;;;14.62;100.00;98963.78;5117683;28;20040;-94
2023/10/14 05:20:22;;;;;;;28.55;11.10;;;;;;;14.49;100.00;98925.91;5116899;28;20500;-95
2023/10/14 05:22:48;;;;;;;22.80;10.45;;;;;;;14.18;100.00;98903.06;5116984;28;20039;-94
2023/10/14 05:25:17;;;;;;;24.48;10.57;;;;;;;14.18;100.00;98899.50;5118190;28;20142;-94
2023/10/14 05:27:55;;;;;;;24.70;10.43;;;;;;;14.29;100.00;98899.09;5118697;28;20067;-95
2023/10/14 05:30:22;;;;;;;28.58;11.60;;;;;;;14.67;100.00;98953.75;5121433;28;20134;-94
2023/10/14 05:32:51;;;;;;;25.67;11.00;;;;;;;14.52;100.00;98930.28;5119552;28;20089;-93
2023/10/14 05:35:22;;;;;;;23.98;10.23;;;;;;;14.38;100.00;98902.28;5121076;27;20515;-95
2023/10/14 05:37:50;;;;;;;24.00;10.45;;;;;;;14.78;100.00;98964.91;5119267;27;20063;-95
2023/10/14 05:40:17;;;;;;;20.77;10.18;;;;;;;14.73;100.00;98955.34;5117216;28;20043;-95
2023/10/14 05:42:43;;;;;;;15.02;7.55;;;;;;;14.66;100.00;98949.34;5117385;27;20388;-92
2023/10/14 05:45:11;;;;;;;15.95;7.65;;;;;;;14.64;100.00;98955.69;5115379;28;20044;-95
2023/10/14 05:47:39;;;;;;;17.20;8.05;;;;;;;14.49;100.00;98944.66;5117660;28;20073;-96
2023/10/14 05:50:08;;;;;;;15.77;7.85;;;;;;;14.52;100.00;98947.19;5117247;28;20048;-95
2023/10/14 05:52:34;;;;;;;15.02;7.90;;;;;;;14.52;100.00;98933.81;5117495;28;20040;-95
2023/10/14 05:55:01;;;;;;;19.52;7.68;;;;;;;14.75;100.00;98948.97;5134517;27;20043;-95
2023/10/14 05:57:29;;;;;;;17.02;7.78;;;;;;;14.69;100.00;98945.69;5117327;28;20050;-94
2023/10/14 05:59:57;;;;;;;14.63;7.60;;;;;;;14.79;100.00;98955.94;5117095;28;20140;-96
2023/10/14 06:02:23;;;;;;;18.55;8.18;;;;;;;14.69;100.00;98919.78;5107032;28;20052;-95
2023/10/14 06:04:50;;;;;;;21.40;9.20;;;;;;;15.00;100.00;98955.97;5100263;28;20062;-95
2023/10/14 06:07:18;;;;;;;19.42;10.18;;;;;;;15.04;100.00;98954.91;5099895;28;20027;-94
2023/10/14 06:09:45;;;;;;;21.60;9.68;;;;;;;14.77;100.00;98896.25;5100040;28;20380;-96
2023/10/14 06:12:13;;;;;;;12.45;6.68;;;;;;;15.15;100.00;98951.78;5100592;28;20040;-95
2023/10/14 06:14:39;;;;;;;12.00;5.97;;;;;;;14.81;100.00;98878.22;5098389;28;20040;-94
2023/10/14 06:17:05;;;;;;;13.48;6.85;;;;;;;15.17;100.00;98923.97;5099054;28;20044;-95
2023/10/14 06:19:31;;;;;;;15.68;7.35;;;;;;;15.37;100.00;98965.13;5099265;28;20042;-95
2023/10/14 06:21:57;;;;;;;20.38;7.80;;;;;;;15.37;100.00;98949.91;5099485;28;20040;-95
2023/10/14 06:24:24;;;;;;;16.08;7.68;;;;;;;15.17;100.00;98897.19;5098436;28;20055;-96
2023/10/14 06:26:58;;;;;;;18.35;8.35;;;;;;;15.24;100.00;98891.56;5099801;28;20048;-93
2023/10/14 06:29:25;;;;;;;15.13;6.97;;;;;;;15.65;100.00;98956.72;5101327;28;20040;-94
2023/10/14 06:31:51;;;;;;;17.88;8.55;;;;;;;15.57;100.00;98941.00;5101884;28;20040;-95
2023/10/14 06:34:20;;;;;;;19.55;8.65;;;;;;;15.67;100.00;98948.63;5101641;28;20426;-95
2023/10/14 06:36:47;;;;;;;16.33;7.38;;;;;;;15.57;100.00;98908.84;5095581;28;20375;-95
2023/10/14 06:39:14;;;;;;;17.13;6.80;;;;;;;15.66;100.00;98902.19;5079445;28;20440;-94
2023/10/14 06:41:45;;;;;;;14.80;5.85;;;;;;;16.08;100.00;98970.03;5082099;28;20063;-94
2023/10/14 06:44:15;;;;;;;13.88;5.50;;;;;;;15.99;100.00;98947.19;5081001;28;20037;-96
2023/10/14 06:46:44;;;;;;;12.88;5.88;;;;;;;15.96;100.00;98928.53;5079105;28;20040;-95
2023/10/14 06:49:16;;;;;;;;;;;;;;;16.27;100.00;98978.09;5079501;28;20044;-95
2023/10/14 06:51:42;;;;;;;14.68;5.90;;;;;;;16.12;100.00;98943.00;5079335;28;19920;-95
2023/10/14 06:54:09;;;;;;;17.10;6.60;;;;;;;16.09;100.00;98940.47;5079498;28;20036;-95
2023/10/14 06:56:35;;;;;;;18.63;6.70;;;;;;;16.41;100.00;98973.81;5079726;28;20037;-94
2023/10/14 06:59:05;;;;;;;12.65;6.32;;;;;;;16.33;100.00;98945.59;5079214;28;20040;-94
2023/10/14 07:01:31;;;;;;;;;;;;;;;16.69;100.00;98993.97;5070432;28;20076;-94
2023/10/14 07:03:57;;;;;;;15.30;7.07;;;;;;;16.55;100.00;98950.81;5067264;28;19925;-92
2023/10/14 07:06:23;;;;;;;12.15;6.70;;;;;;;16.81;100.00;98989.84;5062350;28;20037;-94
2023/10/14 07:08:50;;;;;;;15.82;7.80;;;;;;;16.66;100.00;98945.78;5066825;28;20036;-93
2023/10/14 07:11:16;;;;;;;15.45;7.65;;;;;;;16.93;100.00;98970.44;5065462;28;20032;-93
2023/10/14 07:13:42;;;;;;;18.65;8.10;;;;;;;16.87;100.00;98938.50;5066496;28;20528;-92
2023/10/14 07:16:11;;;;;;;16.38;8.60;;;;;;;17.31;100.00;98991.81;5071727;28;20060;-94
2023/10/14 07:18:37;;;;;;;17.90;8.43;;;;;;;17.16;100.00;98928.09;5071081;28;20040;-96
2023/10/14 07:21:08;;;;;;;18.55;9.88;;;;;;;17.44;100.00;98974.09;5066053;28;20555;-96
2023/10/14 07:23:34;;;;;;;26.30;8.27;;;;;;;17.21;100.00;98931.41;5075794;28;20031;-96
2023/10/14 07:26:09;;;;;;;18.15;8.15;;;;;;;17.78;100.00;98984.91;5074934;28;20127;-94
2023/10/14 07:28:35;;;;;;;20.00;9.35;;;;;;;17.64;100.00;98977.56;5066761;28;20140;-95
2023/10/14 07:31:01;;;;;;;23.33;9.30;;;;;;;17.47;100.00;98965.00;5059109;28;20071;-93
2023/10/14 07:33:29;;;;;;;16.67;8.68;;;;;;;17.28;100.00;98965.09;5076572;28;20049;-93
2023/10/14 07:35:57;;;;;;;17.85;8.63;;;;;;;17.74;100.00;98992.28;5075725;28;20040;-95
2023/10/14 07:38:23;;;;;;;18.80;8.80;;;;;;;17.91;100.00;98991.41;5076653;28;20068;-95
2023/10/14 07:40:49;;;;;;;18.45;8.40;;;;;;;17.81;100.00;98960.53;5059747;28;20071;-96
2023/10/14 07:43:15;;;;;;;17.10;7.82;;;;;;;18.09;100.00;98967.16;5068571;28;20040;-95
2023/10/14 07:45:43;;;;;;;15.13;6.97;;;;;;;18.24;100.00;98951.03;5075650;28;20110;-93
2023/10/14 07:48:10;;;;;;;23.65;8.25;;;;;;;18.37;100.00;98966.50;5071844;28;20068;-93
2023/10/14 07:50:41;;;;;;;15.93;8.10;;;;;;;18.45;100.00;98948.06;5073135;28;20044;-96
2023/10/14 07:53:07;;;;;;;15.48;7.80;;;;;;;18.29;100.00;98974.13;5064080;28;20056;-95
2023/10/14 07:55:35;;;;;;;12.65;7.80;;;;;;;18.70;100.00;98995.19;5067299;28;20131;-93
2023/10/14 07:58:01;;;;;;;14.38;6.30;;;;;;;18.79;100.00;98935.41;5065781;28;20040;-94
2023/10/14 08:00:37;;;;;;;10.63;6.10;;;;;;;19.20;100.00;98968.03;5068197;28;20478;-92
2023/10/14 08:03:06;;;;;;;28.88;7.15;;;;;;;19.44;100.00;98965.69;5069620;28;20068;-92
2023/10/14 08:05:34;;;;;;;15.63;7.00;;;;;;;19.66;100.00;99003.00;5064912;28;20037;-92
2023/10/14 08:08:06;;;;;;;13.50;6.85;;;;;;;19.28;100.00;98970.28;5069512;28;20555;-95
2023/10/14 08:10:32;;;;;;;10.70;5.97;;;;;;;19.28;100.00;98975.66;5071464;28;20044;-94
2023/10/14 08:13:04;;;;;;;14.45;6.25;;;;;;;19.65;100.00;99005.81;5067389;28;20603;-90
2023/10/14 08:15:30;;;;;;;16.15;6.78;;;;;;;19.55;100.00;99008.19;5069188;28;20036;-95
2023/10/14 08:17:58;;;;;;;13.90;5.57;;;;;;;19.81;100.00;98994.97;5066750;28;20041;-94
2023/10/14 08:20:24;;;;;;;12.27;6.93;;;;;;;19.99;100.00;99004.63;5064258;28;20091;-91
2023/10/14 08:22:49;;;;;;;15.93;7.47;;;;;;;19.95;100.00;99016.59;5065431;28;20053;-94
2023/10/14 08:25:18;;;;;;;15.80;7.25;;;;;;;19.71;100.00;98964.97;5063938;28;20033;-92
2023/10/14 08:27:46;;;;;;;13.68;6.40;;;;;;;19.48;100.00;98955.59;5069265;28;20060;-91
2023/10/14 08:30:16;;;;;;;10.02;5.55;;;;;;;20.13;100.00;98997.53;5063524;28;20063;-91
2023/10/14 08:32:43;;;;;;;13.55;6.63;;;;;;;20.53;100.00;99009.34;5069167;28;20021;-94
2023/10/14 08:35:17;;;;;;;13.25;6.82;;;;;;;20.00;100.00;98967.72;5069599;28;20044;-93
2023/10/14 08:37:50;;;;;;;14.07;6.70;;;;;;;20.12;100.00;98983.13;5069966;28;20044;-92
2023/10/14 08:40:20;;;;;;;14.20;7.07;;;;;;;20.25;100.00;98984.09;5069860;28;20048;-91
2023/10/14 08:42:49;;;;;;;11.90;6.40;;;;;;;20.56;100.00;98981.25;5066415;28;20036;-91
2023/10/14 08:45:17;;;;;;;11.20;5.72;;;;;;;20.72;100.00;98987.44;5071130;28;20040;-94
2023/10/14 08:47:45;;;;;;;14.52;6.63;;;;;;;21.09;100.00;99001.25;5082789;28;20048;-93
2023/10/14 08:50:15;;;;;;;11.77;6.28;;;;;;;20.94;100.00;99008.53;5065495;28;20067;-90
2023/10/14 08:52:45;;;;;;;12.98;5.38;;;;;;;20.98;100.00;98949.72;5066304;28;20033;-94
2023/10/14 08:55:13;;;;;;;12.90;5.40;;;;;;;21.40;100.00;98978.41;5072224;28;20563;-95
2023/10/14 08:57:41;;;;;;;11.65;6.70;;;;;;;21.10;100.00;98936.25;5079859;28;20127;-96
2023/10/14 09:00:12;;;;;;;13.55;7.75;;;;;;;21.72;100.00;99007.84;5064695;28;20056;-92
2023/10/14 09:02:40;;;;;;;10.93;6.57;;;;;;;21.74;100.00;98976.97;5077350;28;20041;-94
2023/10/14 09:05:11;;;;;;;10.68;5.50;;;;;;;21.71;100.00;98942.00;5078708;28;20394;-95
2023/10/14 09:07:39;;;;;;;12.07;6.00;;;;;;;21.73;100.00;98915.69;5090311;28;20040;-96
2023/10/14 09:10:06;;;;;;;13.35;5.90;;;;;;;21.85;100.00;98984.34;5096608;28;20048;-95
2023/10/14 09:12:32;;;;;;;10.13;5.30;;;;;;;22.08;100.00;98960.22;5085010;28;20112;-96
2023/10/14 09:14:59;;;;;;;14.68;5.97;;;;;;;22.07;100.00;98947.63;5075802;28;20071;-93
2023/10/14 09:17:25;;;;;;;12.52;5.53;;;;;;;22.01;100.00;98915.56;5075529;28;20041;-94
2023/10/14 09:19:51;;;;;;;14.98;6.18;;;;;;;22.46;100.00;98951.16;5084737;28;20226;-94
2023/10/14 09:22:21;;;;;;;10.13;5.20;;;;;;;22.31;100.00;98942.31;5095768;28;20099;-95
2023/10/14 09:24:49;;;;;;;11.88;6.00;;;;;;;22.23;100.00;98912.19;5097719;28;20044;-93
2023/10/14 09:27:16;;;;;;;11.35;5.15;;;;;;;22.21;100.00;98906.88;5078885;28;20044;-93
2023/10/14 09:29:42;;;;;;;12.57;5.57;;;;;;;22.33;100.00;98906.00;5084215;28;20055;-94
2023/10/14 09:32:10;;;;;;;14.68;5.40;;;;;;;22.67;100.00;98938.75;5097575;28;20036;-94
2023/10/14 09:34:36;;;;;;;11.48;5.72;;;;;;;22.98;100.00;98964.44;5097046;28;20044;-95
2023/10/14 09:37:10;;;;;;;14.63;5.45;;;;;;;23.00;99.37;98945.38;5097675;28;20124;-95
2023/10/14 09:39:39;;;;;;;9.73;5.30;;;;;;;22.90;97.96;98957.84;5100183;28;20390;-94
2023/10/14 09:42:10;;;;;;;10.35;4.60;;;;;;;22.41;97.58;98927.13;5096440;28;20135;-94
2023/10/14 09:44:39;;;;;;;10.65;6.03;;;;;;;22.86;97.71;98961.78;5079827;28;20464;-94
2023/10/14 09:47:09;;;;;;;11.32;4.53;;;;;;;22.61;97.33;98900.41;5079561;28;20045;-95
2023/10/14 09:49:37;;;;;;;8.30;4.90;;;;;;;22.86;96.35;98942.81;5096867;28;20460;-94
2023/10/14 09:52:04;;;;;;;9.15;4.50;;;;;;;23.06;95.92;98923.22;5099739;28;20044;-95
2023/10/14 09:54:33;;;;;;;9.50;4.50;;;;;;;23.10;94.73;98907.56;5090588;28;20068;-95
2023/10/14 09:57:00;;;;;;;6.93;4.28;;;;;;;23.33;94.56;98919.34;5095603;28;20047;-93
2023/10/14 09:59:28;;;;;;;10.60;4.53;;;;;;;23.30;94.23;98903.31;5082592;28;20052;-94
2023/10/14 10:01:54;;;;;;;7.88;4.38;;;;;;;23.55;94.04;98961.97;5072581;28;20090;-94
2023/10/14 10:04:24;;;;;;;9.23;4.47;;;;;;;23.38;95.51;98917.16;5079577;28;20520;-93
2023/10/14 10:07:04;;;;;;;10.25;4.32;;;;;;;23.43;94.51;98914.94;5079364;28;20076;-94
2023/10/14 10:09:57;;;;;;;9.68;4.30;;;;;;;23.18;96.29;98896.97;5067443;28;20044;-95
2023/10/14 10:12:25;;;;;;;6.60;4.03;;;;;;;23.57;97.18;98927.44;5081980;28;20098;-94
2023/10/14 10:14:58;;;;;;;8.20;4.57;;;;;;;23.71;95.40;98915.50;5079932;28;20032;-94
2023/10/14 10:17:26;;;;;;;9.02;4.80;;;;;;;24.25;92.77;98928.41;5070703;28;20040;-95
2023/10/14 10:20:09;;;;;;;9.65;5.05;;;;;;;24.49;91.17;98928.28;5074350;28;20037;-95
2023/10/14 10:22:45;;;;;;;15.60;5.32;;;;;;;24.37;91.97;98924.66;5064141;28;20486;-94
2023/10/14 10:25:14;;;;;;;12.30;5.00;;;;;;;24.34;92.72;98932.22;5079293;28;20063;-96
2023/10/14 10:27:42;;;;;;;11.30;5.57;;;;;;;24.13;92.73;98919.38;5079593;28;20021;-93
2023/10/14 10:30:15;;;;;;;11.18;5.13;;;;;;;23.71;96.24;98921.78;5058659;28;20398;-94
2023/10/14 10:32:46;;;;;;;9.38;5.05;;;;;;;23.79;96.40;98899.50;5054112;28;20041;-94
2023/10/14 10:35:17;;;;;;;8.05;4.50;;;;;;;24.18;96.20;98911.75;5077584;28;20052;-94
2023/10/14 10:37:51;;;;;;;9.30;5.00;;;;;;;24.23;94.67;98908.66;5077521;28;20033;-95
2023/10/14 10:40:22;;;;;;;9.85;4.40;;;;;;;23.82;97.21;98901.97;5076621;28;20052;-93
2023/10/14 10:42:53;;;;;;;8.68;4.93;;;;;;;23.63;97.66;98866.38;5075498;28;20068;-94
2023/10/14 10:45:21;;;;;;;11.45;4.45;;;;;;;23.60;97.88;98870.19;5079583;28;20032;-92
2023/10/14 10:47:52;;;;;;;8.70;4.70;;;;;;;23.34;98.91;98832.41;5065421;28;20401;-94
2023/10/14 10:50:19;;;;;;;9.38;4.80;;;;;;;23.58;99.92;98845.88;5079814;28;20048;-93
2023/10/14 10:53:13;;;;;;;8.93;4.65;;;;;;;23.95;99.65;98875.56;5074555;28;20101;-94
2023/10/14 10:55:42;;;;;;;10.00;4.88;;;;;;;23.87;98.22;98853.56;5079316;28;20387;-94
2023/10/14 10:58:11;;;;;;;10.85;4.65;;;;;;;23.35;98.40;98798.00;5069777;28;20059;-96
2023/10/14 11:00:39;;;;;;;8.32;4.68;;;;;;;23.75;98.24;98822.84;5060132;28;20076;-94
2023/10/14 11:03:06;;;;;;;8.30;4.38;;;;;;;23.92;97.36;98832.34;5081720;28;20044;-95
2023/10/14 11:05:33;;;;;;;12.55;4.88;;;;;;;23.85;97.72;98800.38;5092884;28;20072;-94
2023/10/14 11:08:04;;;;;;;10.55;4.30;;;;;;;23.84;97.56;98791.38;5098384;28;20090;-95
2023/10/14 11:10:34;;;;;;;10.68;4.55;;;;;;;23.60;97.77;98793.34;5120600;28;20044;-95
2023/10/14 11:13:01;;;;;;;8.35;4.18;;;;;;;23.64;99.77;98824.66;5089497;28;20135;-96
2023/10/14 11:15:35;;;;;;;7.40;4.78;;;;;;;23.72;98.27;98805.91;5106286;28;20117;-94
2023/10/14 11:18:01;;;;;;;10.18;4.50;;;;;;;23.84;96.69;98783.22;5106773;28;20043;-95
2023/10/14 11:20:31;;;;;;;8.60;3.70;;;;;;;23.87;96.42;98782.09;5099302;28;20036;-96
2023/10/14 11:23:00;;;;;;;11.63;4.05;;;;;;;24.02;95.90;98820.72;5106763;28;20166;-94
2023/10/14 11:25:30;;;;;;;13.38;4.35;;;;;;;24.01;95.20;98809.00;5093224;28;20048;-95
2023/10/14 11:27:56;;;;;;;9.60;4.15;;;;;;;23.91;95.67;98784.44;5093656;28;20075;-94
2023/10/14 11:30:28;;;;;;;10.02;4.50;;;;;;;23.86;96.36;98764.97;5098864;28;20052;-95
2023/10/14 11:32:58;;;;;;;8.55;4.07;;;;;;;24.02;97.72;98769.97;5102433;28;20039;-95
2023/10/14 11:35:28;;;;;;;12.10;4.43;;;;;;;24.55;94.63;98782.84;5088680;28;20040;-95
2023/10/14 11:37:56;;;;;;;10.82;4.40;;;;;;;24.49;92.68;98738.00;5095871;28;20099;-95
2023/10/14 11:40:32;;;;;;;7.75;4.10;;;;;;;24.96;92.35;98795.63;5091591;28;20044;-95
2023/10/14 11:42:59;;;;;;;11.25;4.13;;;;;;;24.80;91.74;98798.78;5085620;28;20040;-95
2023/10/14 11:45:25;;;;;;;12.05;4.38;;;;;;;24.97;91.54;98799.19;5097402;28;20101;-94
2023/10/14 11:48:03;;;;;;;10.63;4.43;;;;;;;24.61;90.73;98725.19;5092918;28;20032;-95
2023/10/14 11:51:11;;;;;;;10.35;4.25;;;;;;;24.62;90.60;98712.50;5089460;28;20063;-94
2023/10/14 11:54:03;;;;;;;10.45;4.18;;;;;;;24.61;90.26;98711.59;5038237;28;20036;-96
2023/10/14 11:56:32;;;;;;;7.60;4.40;;;;;;;24.50;92.39;98734.28;5041894;28;20049;-92
2023/10/14 11:59:00;;;;;;;;;;;;;;;24.56;93.04;98760.09;5037613;28;20036;-93
2023/10/14 12:01:26;;;;;;;10.50;4.13;;;;;;;24.32;92.01;98701.34;5039501;28;19951;-93
2023/10/14 12:03:52;;;;;;;12.70;4.40;;;;;;;24.36;91.25;98686.50;5039717;28;20131;-93
2023/10/14 12:06:18;;;;;;;11.50;4.07;;;;;;;24.63;91.90;98706.91;5040067;28;20049;-95
2023/10/14 12:08:45;;;;;;;7.78;4.15;;;;;;;24.87;90.63;98732.97;5042727;28;20087;-94
2023/10/14 12:11:14;;;;;;;8.57;4.47;;;;;;;24.69;91.00;98702.81;5043613;28;20048;-94
2023/10/14 12:13:41;;;;;;;11.30;3.80;;;;;;;24.65;90.96;98683.16;5043700;28;20037;-94
2023/10/14 12:16:07;;;;;;;14.38;4.40;;;;;;;24.46;90.63;98678.41;5039337;28;20037;-93
2023/10/14 12:18:36;;;;;;;9.18;4.47;;;;;;;24.54;92.11;98672.34;5043829;28;20041;-95
2023/10/14 12:21:03;;;;;;;10.65;4.30;;;;;;;24.68;92.38;98690.19;5041574;28;20091;-96
2023/10/14 12:23:31;;;;;;;9.00;4.38;;;;;;;24.76;91.26;98690.38;5039243;28;20137;-94
2023/10/14 12:26:00;;;;;;;10.30;4.07;;;;;;;25.02;90.43;98707.16;5041170;28;20068;-94
2023/10/14 12:28:26;;;;;;;11.13;4.10;;;;;;;24.94;88.65;98677.91;5039919;28;20045;-95